sensor_id;sensor_type;location;lat;lon;timestamp;P1;durP1;ratioP1;P2;durP2;ratioP2
8293;SDS011;4185;41.506;24.938;2022-10-15T00:00:20;11.00;;;7.20;;
8293;SDS011;4185;41.506;24.938;2022-10-15T00:02:47;8.80;;;7.17;;
8293;SDS011;4185;41.506;24.938;2022-10-15T00:05:14;8.03;;;7.23;;
8293;SDS011;4185;41.506;24.938;2022-10-15T00:07:43;8.83;;;7.33;;
8293;SDS011;4185;41.506;24.938;2022-10-15T00:10:09;8.83;;;6.57;;
8293;SDS011;4185;41.506;24.938;2022-10-15T00:12:36;8.63;;;6.57;;
8293;SDS011;4185;41.506;24.938;2022-10-15T00:15:04;9.23;;;7.00;;
8293;SDS011;4185;41.506;24.938;2022-10-15T00:17:31;9.90;;;6.90;;
8293;SDS011;4185;41.506;24.938;2022-10-15T00:19:59;8.37;;;7.37;;
8293;SDS011;4185;41.506;24.938;2022-10-15T00:22:26;7.13;;;6.43;;
8293;SDS011;4185;41.506;24.938;2022-10-15T00:24:54;7.97;;;6.83;;
8293;SDS011;4185;41.506;24.938;2022-10-15T00:27:21;9.57;;;7.17;;
8293;SDS011;4185;41.506;24.938;2022-10-15T00:29:47;9.43;;;7.27;;
8293;SDS011;4185;41.506;24.938;2022-10-15T00:32:14;7.77;;;6.67;;
8293;SDS011;4185;41.506;24.938;2022-10-15T00:34:41;9.27;;;7.70;;
8293;SDS011;4185;41.506;24.938;2022-10-15T00:37:08;8.40;;;6.87;;
8293;SDS011;4185;41.506;24.938;2022-10-15T00:39:35;9.07;;;6.97;;
8293;SDS011;4185;41.506;24.938;2022-10-15T00:42:04;8.67;;;7.27;;
8293;SDS011;4185;41.506;24.938;2022-10-15T00:44:51;7.60;;;6.80;;
8293;SDS011;4185;41.506;24.938;2022-10-15T00:47:22;10.13;;;7.50;;
8293;SDS011;4185;41.506;24.938;2022-10-15T00:49:54;11.47;;;7.10;;
8293;SDS011;4185;41.506;24.938;2022-10-15T00:52:26;9.97;;;7.47;;
8293;SDS011;4185;41.506;24.938;2022-10-15T00:54:58;9.10;;;7.07;;
8293;SDS011;4185;41.506;24.938;2022-10-15T00:57:30;10.80;;;8.07;;
8293;SDS011;4185;41.506;24.938;2022-10-15T01:00:00;13.27;;;8.03;;
8293;SDS011;4185;41.506;24.938;2022-10-15T01:02:30;9.10;;;7.03;;
8293;SDS011;4185;41.506;24.938;2022-10-15T01:04:57;8.97;;;7.40;;
8293;SDS011;4185;41.506;24.938;2022-10-15T01:07:24;10.53;;;7.97;;
8293;SDS011;4185;41.506;24.938;2022-10-15T01:09:51;8.67;;;7.60;;
8293;SDS011;4185;41.506;24.938;2022-10-15T01:12:20;8.57;;;7.60;;
8293;SDS011;4185;41.506;24.938;2022-10-15T01:14:56;11.50;;;8.23;;
8293;SDS011;4185;41.506;24.938;2022-10-15T01:17:30;11.23;;;7.70;;
8293;SDS011;4185;41.506;24.938;2022-10-15T01:20:14;10.73;;;8.33;;
8293;SDS011;4185;41.506;24.938;2022-10-15T01:22:56;10.00;;;8.33;;
8293;SDS011;4185;41.506;24.938;2022-10-15T01:25:40;10.70;;;8.47;;
8293;SDS011;4185;41.506;24.938;2022-10-15T01:28:17;11.57;;;9.20;;
8293;SDS011;4185;41.506;24.938;2022-10-15T01:30:57;10.67;;;8.80;;
8293;SDS011;4185;41.506;24.938;2022-10-15T01:33:30;13.13;;;8.90;;
8293;SDS011;4185;41.506;24.938;2022-10-15T01:36:06;11.17;;;9.40;;
8293;SDS011;4185;41.506;24.938;2022-10-15T01:38:44;15.77;;;10.20;;
8293;SDS011;4185;41.506;24.938;2022-10-15T01:41:15;11.77;;;9.40;;
8293;SDS011;4185;41.506;24.938;2022-10-15T01:43:50;15.37;;;9.50;;
8293;SDS011;4185;41.506;24.938;2022-10-15T01:46:28;11.23;;;9.63;;
8293;SDS011;4185;41.506;24.938;2022-10-15T01:49:01;10.70;;;8.87;;
8293;SDS011;4185;41.506;24.938;2022-10-15T01:51:30;16.00;;;10.20;;
8293;SDS011;4185;41.506;24.938;2022-10-15T01:54:01;14.53;;;9.80;;
8293;SDS011;4185;41.506;24.938;2022-10-15T01:56:31;12.73;;;9.63;;
8293;SDS011;4185;41.506;24.938;2022-10-15T01:59:01;10.90;;;9.37;;
8293;SDS011;4185;41.506;24.938;2022-10-15T02:01:31;12.80;;;9.30;;
8293;SDS011;4185;41.506;24.938;2022-10-15T02:03:58;11.87;;;9.47;;
8293;SDS011;4185;41.506;24.938;2022-10-15T02:06:26;11.77;;;9.37;;
8293;SDS011;4185;41.506;24.938;2022-10-15T02:08:59;11.03;;;7.93;;
8293;SDS011;4185;41.506;24.938;2022-10-15T02:11:31;9.77;;;8.43;;
8293;SDS011;4185;41.506;24.938;2022-10-15T02:14:07;11.57;;;8.70;;
8293;SDS011;4185;41.506;24.938;2022-10-15T02:16:40;9.93;;;8.13;;
8293;SDS011;4185;41.506;24.938;2022-10-15T02:19:14;8.77;;;7.87;;
8293;SDS011;4185;41.506;24.938;2022-10-15T02:21:46;11.77;;;7.93;;
8293;SDS011;4185;41.506;24.938;2022-10-15T02:24:18;9.73;;;7.73;;
8293;SDS011;4185;41.506;24.938;2022-10-15T02:26:47;10.70;;;8.00;;
8293;SDS011;4185;41.506;24.938;2022-10-15T02:29:18;11.27;;;7.27;;
8293;SDS011;4185;41.506;24.938;2022-10-15T02:31:50;10.47;;;7.53;;
8293;SDS011;4185;41.506;24.938;2022-10-15T02:34:20;9.00;;;7.17;;
8293;SDS011;4185;41.506;24.938;2022-10-15T02:36:50;10.07;;;8.03;;
8293;SDS011;4185;41.506;24.938;2022-10-15T02:39:19;11.30;;;6.40;;
8293;SDS011;4185;41.506;24.938;2022-10-15T02:41:49;9.17;;;7.33;;
8293;SDS011;4185;41.506;24.938;2022-10-15T02:44:17;7.17;;;6.20;;
8293;SDS011;4185;41.506;24.938;2022-10-15T02:46:44;9.80;;;7.17;;
8293;SDS011;4185;41.506;24.938;2022-10-15T02:49:12;11.33;;;7.20;;
8293;SDS011;4185;41.506;24.938;2022-10-15T02:51:39;9.53;;;7.20;;
8293;SDS011;4185;41.506;24.938;2022-10-15T02:54:06;7.40;;;6.07;;
8293;SDS011;4185;41.506;24.938;2022-10-15T02:56:33;11.23;;;7.30;;
8293;SDS011;4185;41.506;24.938;2022-10-15T02:59:03;9.53;;;6.40;;
8293;SDS011;4185;41.506;24.938;2022-10-15T03:01:30;9.60;;;6.50;;
8293;SDS011;4185;41.506;24.938;2022-10-15T03:03:57;6.73;;;6.10;;
8293;SDS011;4185;41.506;24.938;2022-10-15T03:06:25;6.87;;;5.83;;
8293;SDS011;4185;41.506;24.938;2022-10-15T03:08:52;9.10;;;6.93;;
8293;SDS011;4185;41.506;24.938;2022-10-15T03:11:19;7.93;;;5.87;;
8293;SDS011;4185;41.506;24.938;2022-10-15T03:13:47;8.43;;;5.93;;
8293;SDS011;4185;41.506;24.938;2022-10-15T03:16:13;6.27;;;5.67;;
8293;SDS011;4185;41.506;24.938;2022-10-15T03:18:40;7.13;;;5.63;;
8293;SDS011;4185;41.506;24.938;2022-10-15T03:21:07;10.97;;;5.83;;
8293;SDS011;4185;41.506;24.938;2022-10-15T03:23:36;6.90;;;6.20;;
8293;SDS011;4185;41.506;24.938;2022-10-15T03:26:03;7.40;;;6.27;;
8293;SDS011;4185;41.506;24.938;2022-10-15T03:28:29;8.03;;;6.27;;
8293;SDS011;4185;41.506;24.938;2022-10-15T03:30:56;6.87;;;6.10;;
8293;SDS011;4185;41.506;24.938;2022-10-15T03:33:24;6.50;;;5.90;;
8293;SDS011;4185;41.506;24.938;2022-10-15T03:35:51;8.27;;;6.53;;
8293;SDS011;4185;41.506;24.938;2022-10-15T03:38:18;7.33;;;6.43;;
8293;SDS011;4185;41.506;24.938;2022-10-15T03:40:46;8.03;;;6.30;;
8293;SDS011;4185;41.506;24.938;2022-10-15T03:43:13;8.27;;;5.93;;
8293;SDS011;4185;41.506;24.938;2022-10-15T03:45:40;6.17;;;5.57;;
8293;SDS011;4185;41.506;24.938;2022-10-15T03:48:07;8.40;;;6.53;;
8293;SDS011;4185;41.506;24.938;2022-10-15T03:50:33;8.37;;;6.60;;
8293;SDS011;4185;41.506;24.938;2022-10-15T03:53:01;6.87;;;5.80;;
8293;SDS011;4185;41.506;24.938;2022-10-15T03:55:29;6.93;;;6.27;;
8293;SDS011;4185;41.506;24.938;2022-10-15T03:57:57;6.53;;;5.70;;
8293;SDS011;4185;41.506;24.938;2022-10-15T04:00:24;6.53;;;5.93;;
8293;SDS011;4185;41.506;24.938;2022-10-15T04:02:53;7.10;;;4.80;;
8293;SDS011;4185;41.506;24.938;2022-10-15T04:05:20;6.33;;;5.73;;
8293;SDS011;4185;41.506;24.938;2022-10-15T04:07:47;6.80;;;5.43;;
8293;SDS011;4185;41.506;24.938;2022-10-15T04:10:13;5.47;;;4.90;;
8293;SDS011;4185;41.506;24.938;2022-10-15T04:12:41;6.07;;;5.10;;
8293;SDS011;4185;41.506;24.938;2022-10-15T04:15:09;5.30;;;4.40;;
8293;SDS011;4185;41.506;24.938;2022-10-15T04:17:36;4.83;;;4.17;;
8293;SDS011;4185;41.506;24.938;2022-10-15T04:20:03;4.60;;;4.00;;
8293;SDS011;4185;41.506;24.938;2022-10-15T04:22:30;6.93;;;5.03;;
8293;SDS011;4185;41.506;24.938;2022-10-15T04:24:57;9.23;;;4.60;;
8293;SDS011;4185;41.506;24.938;2022-10-15T04:27:24;5.40;;;4.33;;
8293;SDS011;4185;41.506;24.938;2022-10-15T04:29:51;6.40;;;4.67;;
8293;SDS011;4185;41.506;24.938;2022-10-15T04:32:19;6.17;;;4.27;;
8293;SDS011;4185;41.506;24.938;2022-10-15T04:34:46;6.00;;;4.67;;
8293;SDS011;4185;41.506;24.938;2022-10-15T04:37:13;6.03;;;4.27;;
8293;SDS011;4185;41.506;24.938;2022-10-15T04:39:40;5.73;;;4.47;;
8293;SDS011;4185;41.506;24.938;2022-10-15T04:42:07;7.13;;;4.27;;
8293;SDS011;4185;41.506;24.938;2022-10-15T04:44:34;5.23;;;4.33;;
8293;SDS011;4185;41.506;24.938;2022-10-15T04:47:00;4.93;;;4.43;;
8293;SDS011;4185;41.506;24.938;2022-10-15T04:49:29;4.30;;;3.90;;
8293;SDS011;4185;41.506;24.938;2022-10-15T04:51:56;4.73;;;4.33;;
8293;SDS011;4185;41.506;24.938;2022-10-15T04:54:22;5.73;;;4.27;;
8293;SDS011;4185;41.506;24.938;2022-10-15T04:56:49;5.50;;;4.20;;
8293;SDS011;4185;41.506;24.938;2022-10-15T04:59:16;4.10;;;3.60;;
8293;SDS011;4185;41.506;24.938;2022-10-15T05:01:43;4.87;;;3.80;;
8293;SDS011;4185;41.506;24.938;2022-10-15T05:04:10;4.33;;;3.83;;
8293;SDS011;4185;41.506;24.938;2022-10-15T05:06:38;4.80;;;3.83;;
8293;SDS011;4185;41.506;24.938;2022-10-15T05:09:05;4.27;;;3.70;;
8293;SDS011;4185;41.506;24.938;2022-10-15T05:11:34;5.50;;;4.77;;
8293;SDS011;4185;41.506;24.938;2022-10-15T05:14:01;5.50;;;3.50;;
8293;SDS011;4185;41.506;24.938;2022-10-15T05:16:28;6.07;;;3.80;;
8293;SDS011;4185;41.506;24.938;2022-10-15T05:18:56;5.00;;;4.10;;
8293;SDS011;4185;41.506;24.938;2022-10-15T05:21:24;4.63;;;3.80;;
8293;SDS011;4185;41.506;24.938;2022-10-15T05:23:53;5.17;;;3.93;;
8293;SDS011;4185;41.506;24.938;2022-10-15T05:26:21;4.70;;;4.00;;
8293;SDS011;4185;41.506;24.938;2022-10-15T05:28:49;4.67;;;3.90;;
8293;SDS011;4185;41.506;24.938;2022-10-15T05:31:17;4.47;;;3.83;;
8293;SDS011;4185;41.506;24.938;2022-10-15T05:33:45;4.97;;;3.80;;
8293;SDS011;4185;41.506;24.938;2022-10-15T05:36:16;3.80;;;3.23;;
8293;SDS011;4185;41.506;24.938;2022-10-15T05:38:45;5.80;;;3.50;;
8293;SDS011;4185;41.506;24.938;2022-10-15T05:41:14;6.90;;;3.60;;
8293;SDS011;4185;41.506;24.938;2022-10-15T05:43:41;3.57;;;3.27;;
8293;SDS011;4185;41.506;24.938;2022-10-15T05:46:08;3.80;;;2.87;;
8293;SDS011;4185;41.506;24.938;2022-10-15T05:48:35;5.63;;;3.33;;
8293;SDS011;4185;41.506;24.938;2022-10-15T05:51:02;3.87;;;3.43;;
8293;SDS011;4185;41.506;24.938;2022-10-15T05:53:30;4.70;;;3.60;;
8293;SDS011;4185;41.506;24.938;2022-10-15T05:55:57;4.67;;;2.97;;
8293;SDS011;4185;41.506;24.938;2022-10-15T05:58:26;4.63;;;4.20;;
8293;SDS011;4185;41.506;24.938;2022-10-15T06:00:54;16.50;;;9.80;;
8293;SDS011;4185;41.506;24.938;2022-10-15T06:03:21;18.53;;;13.87;;
8293;SDS011;4185;41.506;24.938;2022-10-15T06:05:49;36.50;;;25.63;;
8293;SDS011;4185;41.506;24.938;2022-10-15T06:08:16;21.53;;;15.90;;
8293;SDS011;4185;41.506;24.938;2022-10-15T06:10:43;22.57;;;16.90;;
8293;SDS011;4185;41.506;24.938;2022-10-15T06:13:10;13.20;;;10.30;;
8293;SDS011;4185;41.506;24.938;2022-10-15T06:15:39;12.70;;;9.87;;
8293;SDS011;4185;41.506;24.938;2022-10-15T06:18:06;14.00;;;10.17;;
8293;SDS011;4185;41.506;24.938;2022-10-15T06:20:34;18.10;;;13.37;;
8293;SDS011;4185;41.506;24.938;2022-10-15T06:23:01;18.47;;;14.50;;
8293;SDS011;4185;41.506;24.938;2022-10-15T06:25:30;27.23;;;18.30;;
8293;SDS011;4185;41.506;24.938;2022-10-15T06:27:59;10.13;;;7.53;;
8293;SDS011;4185;41.506;24.938;2022-10-15T06:30:27;11.17;;;8.37;;
8293;SDS011;4185;41.506;24.938;2022-10-15T06:32:56;6.67;;;5.20;;
8293;SDS011;4185;41.506;24.938;2022-10-15T06:35:23;10.70;;;6.73;;
8293;SDS011;4185;41.506;24.938;2022-10-15T06:37:51;8.63;;;7.23;;
8293;SDS011;4185;41.506;24.938;2022-10-15T06:40:18;7.40;;;4.77;;
8293;SDS011;4185;41.506;24.938;2022-10-15T06:42:45;4.60;;;3.03;;
8293;SDS011;4185;41.506;24.938;2022-10-15T06:45:12;4.43;;;2.70;;
8293;SDS011;4185;41.506;24.938;2022-10-15T06:47:39;8.00;;;2.70;;
8293;SDS011;4185;41.506;24.938;2022-10-15T06:50:07;2.97;;;2.67;;
8293;SDS011;4185;41.506;24.938;2022-10-15T06:52:35;3.67;;;2.40;;
8293;SDS011;4185;41.506;24.938;2022-10-15T06:55:02;2.50;;;2.30;;
8293;SDS011;4185;41.506;24.938;2022-10-15T06:57:29;2.80;;;2.40;;
8293;SDS011;4185;41.506;24.938;2022-10-15T06:59:56;3.40;;;2.53;;
8293;SDS011;4185;41.506;24.938;2022-10-15T07:02:23;4.17;;;2.80;;
8293;SDS011;4185;41.506;24.938;2022-10-15T07:04:50;4.00;;;2.33;;
8293;SDS011;4185;41.506;24.938;2022-10-15T07:07:18;2.83;;;2.00;;
8293;SDS011;4185;41.506;24.938;2022-10-15T07:09:45;5.63;;;3.90;;
8293;SDS011;4185;41.506;24.938;2022-10-15T07:12:12;4.63;;;2.50;;
8293;SDS011;4185;41.506;24.938;2022-10-15T07:14:40;3.43;;;1.90;;
8293;SDS011;4185;41.506;24.938;2022-10-15T07:17:07;2.90;;;2.33;;
8293;SDS011;4185;41.506;24.938;2022-10-15T07:19:33;3.63;;;2.63;;
8293;SDS011;4185;41.506;24.938;2022-10-15T07:22:00;5.10;;;2.33;;
8293;SDS011;4185;41.506;24.938;2022-10-15T07:24:29;3.57;;;2.70;;
8293;SDS011;4185;41.506;24.938;2022-10-15T07:26:55;4.57;;;2.70;;
8293;SDS011;4185;41.506;24.938;2022-10-15T07:29:22;8.43;;;4.20;;
8293;SDS011;4185;41.506;24.938;2022-10-15T07:31:49;3.17;;;2.23;;
8293;SDS011;4185;41.506;24.938;2022-10-15T07:34:16;2.77;;;2.47;;
8293;SDS011;4185;41.506;24.938;2022-10-15T07:36:43;3.07;;;2.40;;
8293;SDS011;4185;41.506;24.938;2022-10-15T07:39:10;3.33;;;2.53;;
8293;SDS011;4185;41.506;24.938;2022-10-15T07:41:38;7.07;;;3.67;;
8293;SDS011;4185;41.506;24.938;2022-10-15T07:44:05;4.50;;;3.10;;
8293;SDS011;4185;41.506;24.938;2022-10-15T07:46:32;5.03;;;4.10;;
8293;SDS011;4185;41.506;24.938;2022-10-15T07:48:58;3.53;;;2.23;;
8293;SDS011;4185;41.506;24.938;2022-10-15T07:51:25;4.77;;;2.17;;
8293;SDS011;4185;41.506;24.938;2022-10-15T07:53:52;7.67;;;5.23;;
8293;SDS011;4185;41.506;24.938;2022-10-15T07:56:19;8.00;;;4.00;;
8293;SDS011;4185;41.506;24.938;2022-10-15T07:58:47;7.37;;;5.30;;
8293;SDS011;4185;41.506;24.938;2022-10-15T08:01:17;10.67;;;7.43;;
8293;SDS011;4185;41.506;24.938;2022-10-15T08:03:44;3.70;;;3.20;;
8293;SDS011;4185;41.506;24.938;2022-10-15T08:06:11;5.40;;;3.23;;
8293;SDS011;4185;41.506;24.938;2022-10-15T08:08:38;4.33;;;3.10;;
8293;SDS011;4185;41.506;24.938;2022-10-15T08:11:05;2.50;;;2.30;;
8293;SDS011;4185;41.506;24.938;2022-10-15T08:13:33;4.13;;;3.73;;
8293;SDS011;4185;41.506;24.938;2022-10-15T08:16:01;3.30;;;2.30;;
8293;SDS011;4185;41.506;24.938;2022-10-15T08:18:29;2.10;;;1.70;;
8293;SDS011;4185;41.506;24.938;2022-10-15T08:20:57;3.23;;;2.10;;
8293;SDS011;4185;41.506;24.938;2022-10-15T08:23:24;2.50;;;2.30;;
8293;SDS011;4185;41.506;24.938;2022-10-15T08:25:51;3.57;;;2.53;;
8293;SDS011;4185;41.506;24.938;2022-10-15T08:28:18;6.80;;;5.30;;
8293;SDS011;4185;41.506;24.938;2022-10-15T08:30:45;4.70;;;4.20;;
8293;SDS011;4185;41.506;24.938;2022-10-15T08:33:13;5.27;;;3.30;;
8293;SDS011;4185;41.506;24.938;2022-10-15T08:35:40;3.33;;;2.20;;
8293;SDS011;4185;41.506;24.938;2022-10-15T08:38:07;7.83;;;5.80;;
8293;SDS011;4185;41.506;24.938;2022-10-15T08:40:35;2.27;;;2.00;;
8293;SDS011;4185;41.506;24.938;2022-10-15T08:43:02;7.10;;;2.23;;
8293;SDS011;4185;41.506;24.938;2022-10-15T08:45:30;3.17;;;2.10;;
8293;SDS011;4185;41.506;24.938;2022-10-15T08:48:04;2.40;;;2.00;;
8293;SDS011;4185;41.506;24.938;2022-10-15T08:50:39;2.27;;;1.80;;
8293;SDS011;4185;41.506;24.938;2022-10-15T08:53:09;2.50;;;1.70;;
8293;SDS011;4185;41.506;24.938;2022-10-15T08:55:38;4.67;;;2.57;;
8293;SDS011;4185;41.506;24.938;2022-10-15T08:58:11;3.53;;;2.40;;
8293;SDS011;4185;41.506;24.938;2022-10-15T09:00:42;2.57;;;1.87;;
8293;SDS011;4185;41.506;24.938;2022-10-15T09:06:03;2.73;;;2.20;;
8293;SDS011;4185;41.506;24.938;2022-10-15T09:08:38;3.47;;;2.50;;
8293;SDS011;4185;41.506;24.938;2022-10-15T09:11:13;3.70;;;2.63;;
8293;SDS011;4185;41.506;24.938;2022-10-15T09:13:46;2.97;;;1.80;;
8293;SDS011;4185;41.506;24.938;2022-10-15T09:16:15;2.67;;;2.00;;
8293;SDS011;4185;41.506;24.938;2022-10-15T09:18:45;2.27;;;2.07;;
8293;SDS011;4185;41.506;24.938;2022-10-15T09:21:14;3.87;;;2.10;;
8293;SDS011;4185;41.506;24.938;2022-10-15T09:23:41;2.83;;;2.17;;
8293;SDS011;4185;41.506;24.938;2022-10-15T09:26:15;2.67;;;1.83;;
8293;SDS011;4185;41.506;24.938;2022-10-15T09:28:49;3.70;;;2.23;;
8293;SDS011;4185;41.506;24.938;2022-10-15T09:31:22;2.77;;;2.10;;
8293;SDS011;4185;41.506;24.938;2022-10-15T09:33:55;2.80;;;1.90;;
8293;SDS011;4185;41.506;24.938;2022-10-15T09:36:34;3.03;;;2.07;;
8293;SDS011;4185;41.506;24.938;2022-10-15T09:39:11;2.37;;;2.13;;
8293;SDS011;4185;41.506;24.938;2022-10-15T09:41:58;3.77;;;2.50;;
8293;SDS011;4185;41.506;24.938;2022-10-15T09:44:35;4.73;;;2.77;;
8293;SDS011;4185;41.506;24.938;2022-10-15T09:47:13;9.10;;;4.37;;
8293;SDS011;4185;41.506;24.938;2022-10-15T09:49:41;5.77;;;3.90;;
8293;SDS011;4185;41.506;24.938;2022-10-15T09:52:12;4.90;;;3.40;;
8293;SDS011;4185;41.506;24.938;2022-10-15T09:54:47;3.27;;;2.63;;
8293;SDS011;4185;41.506;24.938;2022-10-15T09:57:20;3.77;;;2.27;;
8293;SDS011;4185;41.506;24.938;2022-10-15T09:59:52;2.80;;;2.33;;
8293;SDS011;4185;41.506;24.938;2022-10-15T10:02:20;2.90;;;2.07;;
8293;SDS011;4185;41.506;24.938;2022-10-15T10:04:48;4.50;;;3.93;;
8293;SDS011;4185;41.506;24.938;2022-10-15T10:10:01;5.97;;;4.67;;
8293;SDS011;4185;41.506;24.938;2022-10-15T10:12:31;4.77;;;3.70;;
8293;SDS011;4185;41.506;24.938;2022-10-15T10:14:59;3.83;;;3.30;;
8293;SDS011;4185;41.506;24.938;2022-10-15T10:17:29;4.27;;;3.13;;
8293;SDS011;4185;41.506;24.938;2022-10-15T10:20:09;9.83;;;6.10;;
8293;SDS011;4185;41.506;24.938;2022-10-15T10:22:45;3.60;;;2.90;;
8293;SDS011;4185;41.506;24.938;2022-10-15T10:25:23;3.90;;;3.50;;
8293;SDS011;4185;41.506;24.938;2022-10-15T10:28:04;3.03;;;2.67;;
8293;SDS011;4185;41.506;24.938;2022-10-15T10:30:45;4.57;;;2.77;;
8293;SDS011;4185;41.506;24.938;2022-10-15T10:33:29;3.83;;;2.60;;
8293;SDS011;4185;41.506;24.938;2022-10-15T10:35:59;4.40;;;2.93;;
8293;SDS011;4185;41.506;24.938;2022-10-15T10:38:28;3.27;;;2.73;;
8293;SDS011;4185;41.506;24.938;2022-10-15T10:40:58;2.80;;;2.50;;
8293;SDS011;4185;41.506;24.938;2022-10-15T10:43:29;3.77;;;2.40;;
8293;SDS011;4185;41.506;24.938;2022-10-15T10:45:58;2.60;;;2.40;;
8293;SDS011;4185;41.506;24.938;2022-10-15T10:48:27;2.50;;;2.30;;
8293;SDS011;4185;41.506;24.938;2022-10-15T10:53:50;2.77;;;2.40;;
8293;SDS011;4185;41.506;24.938;2022-10-15T10:56:21;2.37;;;2.10;;
8293;SDS011;4185;41.506;24.938;2022-10-15T10:58:51;4.17;;;2.90;;
8293;SDS011;4185;41.506;24.938;2022-10-15T11:01:22;4.13;;;2.47;;
8293;SDS011;4185;41.506;24.938;2022-10-15T11:03:49;3.83;;;2.93;;
8293;SDS011;4185;41.506;24.938;2022-10-15T11:09:21;4.57;;;2.67;;
8293;SDS011;4185;41.506;24.938;2022-10-15T11:12:05;5.20;;;3.80;;
8293;SDS011;4185;41.506;24.938;2022-10-15T11:14:46;3.03;;;2.73;;
8293;SDS011;4185;41.506;24.938;2022-10-15T11:17:22;6.00;;;4.80;;
8293;SDS011;4185;41.506;24.938;2022-10-15T11:20:02;3.37;;;2.67;;
8293;SDS011;4185;41.506;24.938;2022-10-15T11:22:46;3.20;;;2.50;;
8293;SDS011;4185;41.506;24.938;2022-10-15T11:25:26;3.43;;;2.87;;
8293;SDS011;4185;41.506;24.938;2022-10-15T11:28:04;4.47;;;2.70;;
8293;SDS011;4185;41.506;24.938;2022-10-15T11:30:44;3.10;;;2.80;;
8293;SDS011;4185;41.506;24.938;2022-10-15T11:33:29;3.07;;;2.50;;
8293;SDS011;4185;41.506;24.938;2022-10-15T11:36:18;3.03;;;2.50;;
8293;SDS011;4185;41.506;24.938;2022-10-15T11:38:56;4.10;;;2.53;;
8293;SDS011;4185;41.506;24.938;2022-10-15T11:41:42;3.17;;;2.57;;
8293;SDS011;4185;41.506;24.938;2022-10-15T11:44:28;3.57;;;2.50;;
8293;SDS011;4185;41.506;24.938;2022-10-15T11:47:11;5.70;;;2.83;;
8293;SDS011;4185;41.506;24.938;2022-10-15T11:49:54;3.17;;;2.83;;
8293;SDS011;4185;41.506;24.938;2022-10-15T11:52:40;6.33;;;2.87;;
8293;SDS011;4185;41.506;24.938;2022-10-15T11:55:22;3.30;;;2.47;;
8293;SDS011;4185;41.506;24.938;2022-10-15T11:57:56;4.13;;;3.07;;
8293;SDS011;4185;41.506;24.938;2022-10-15T12:00:29;3.50;;;2.57;;
8293;SDS011;4185;41.506;24.938;2022-10-15T12:03:01;4.43;;;2.93;;
8293;SDS011;4185;41.506;24.938;2022-10-15T12:05:32;4.47;;;2.93;;
8293;SDS011;4185;41.506;24.938;2022-10-15T12:08:04;5.13;;;3.50;;
8293;SDS011;4185;41.506;24.938;2022-10-15T12:10:36;3.37;;;3.00;;
8293;SDS011;4185;41.506;24.938;2022-10-15T12:13:17;3.50;;;3.00;;
8293;SDS011;4185;41.506;24.938;2022-10-15T12:15:52;4.03;;;3.63;;
8293;SDS011;4185;41.506;24.938;2022-10-15T12:18:31;4.33;;;2.97;;
8293;SDS011;4185;41.506;24.938;2022-10-15T12:21:18;3.23;;;2.87;;
8293;SDS011;4185;41.506;24.938;2022-10-15T12:23:55;4.47;;;4.07;;
8293;SDS011;4185;41.506;24.938;2022-10-15T12:26:26;4.13;;;3.67;;
8293;SDS011;4185;41.506;24.938;2022-10-15T12:28:58;5.40;;;3.63;;
8293;SDS011;4185;41.506;24.938;2022-10-15T12:31:41;4.40;;;3.70;;
8293;SDS011;4185;41.506;24.938;2022-10-15T12:34:23;4.40;;;3.53;;
8293;SDS011;4185;41.506;24.938;2022-10-15T12:36:59;4.43;;;3.17;;
8293;SDS011;4185;41.506;24.938;2022-10-15T12:39:28;4.57;;;3.63;;
8293;SDS011;4185;41.506;24.938;2022-10-15T12:41:55;6.70;;;4.77;;
8293;SDS011;4185;41.506;24.938;2022-10-15T12:44:25;4.63;;;4.23;;
8293;SDS011;4185;41.506;24.938;2022-10-15T12:46:57;6.43;;;5.63;;
8293;SDS011;4185;41.506;24.938;2022-10-15T12:55:19;4.53;;;4.10;;
8293;SDS011;4185;41.506;24.938;2022-10-15T12:57:50;5.67;;;5.07;;
8293;SDS011;4185;41.506;24.938;2022-10-15T13:00:30;6.43;;;5.47;;
8293;SDS011;4185;41.506;24.938;2022-10-15T13:03:18;5.90;;;4.80;;
8293;SDS011;4185;41.506;24.938;2022-10-15T13:05:50;6.73;;;5.63;;
8293;SDS011;4185;41.506;24.938;2022-10-15T13:08:20;8.23;;;6.13;;
8293;SDS011;4185;41.506;24.938;2022-10-15T13:10:50;5.93;;;5.33;;
8293;SDS011;4185;41.506;24.938;2022-10-15T13:13:21;9.10;;;7.63;;
8293;SDS011;4185;41.506;24.938;2022-10-15T13:15:54;12.10;;;8.37;;
8293;SDS011;4185;41.506;24.938;2022-10-15T13:18:23;9.43;;;7.93;;
8293;SDS011;4185;41.506;24.938;2022-10-15T13:20:51;7.53;;;6.30;;
8293;SDS011;4185;41.506;24.938;2022-10-15T13:23:21;8.40;;;6.13;;
8293;SDS011;4185;41.506;24.938;2022-10-15T13:25:52;7.90;;;6.30;;
8293;SDS011;4185;41.506;24.938;2022-10-15T13:28:36;11.93;;;8.57;;
8293;SDS011;4185;41.506;24.938;2022-10-15T13:31:10;15.47;;;9.10;;
8293;SDS011;4185;41.506;24.938;2022-10-15T13:33:42;12.53;;;9.37;;
8293;SDS011;4185;41.506;24.938;2022-10-15T13:36:14;16.30;;;10.87;;
8293;SDS011;4185;41.506;24.938;2022-10-15T13:38:50;16.50;;;10.40;;
8293;SDS011;4185;41.506;24.938;2022-10-15T13:41:21;15.27;;;9.87;;
8293;SDS011;4185;41.506;24.938;2022-10-15T13:43:53;10.67;;;7.93;;
8293;SDS011;4185;41.506;24.938;2022-10-15T13:46:25;15.83;;;11.53;;
8293;SDS011;4185;41.506;24.938;2022-10-15T13:48:56;11.90;;;9.67;;
8293;SDS011;4185;41.506;24.938;2022-10-15T13:51:25;9.37;;;7.83;;
8293;SDS011;4185;41.506;24.938;2022-10-15T13:53:57;8.33;;;6.10;;
8293;SDS011;4185;41.506;24.938;2022-10-15T13:56:26;13.27;;;8.53;;
8293;SDS011;4185;41.506;24.938;2022-10-15T13:58:55;5.70;;;5.10;;
8293;SDS011;4185;41.506;24.938;2022-10-15T14:01:25;8.43;;;5.43;;
8293;SDS011;4185;41.506;24.938;2022-10-15T14:03:53;10.57;;;7.13;;
8293;SDS011;4185;41.506;24.938;2022-10-15T14:06:21;6.53;;;5.00;;
8293;SDS011;4185;41.506;24.938;2022-10-15T14:08:50;19.23;;;14.67;;
8293;SDS011;4185;41.506;24.938;2022-10-15T14:11:18;10.07;;;6.37;;
8293;SDS011;4185;41.506;24.938;2022-10-15T14:13:46;6.03;;;4.47;;
8293;SDS011;4185;41.506;24.938;2022-10-15T14:16:15;5.80;;;4.13;;
8293;SDS011;4185;41.506;24.938;2022-10-15T14:18:47;9.17;;;6.33;;
8293;SDS011;4185;41.506;24.938;2022-10-15T14:21:16;8.70;;;5.43;;
8293;SDS011;4185;41.506;24.938;2022-10-15T14:23:45;10.77;;;6.80;;
8293;SDS011;4185;41.506;24.938;2022-10-15T14:26:14;7.43;;;5.80;;
8293;SDS011;4185;41.506;24.938;2022-10-15T14:28:49;5.97;;;5.07;;
8293;SDS011;4185;41.506;24.938;2022-10-15T14:31:24;23.77;;;13.83;;
8293;SDS011;4185;41.506;24.938;2022-10-15T14:33:57;11.40;;;8.87;;
8293;SDS011;4185;41.506;24.938;2022-10-15T14:36:25;15.40;;;10.00;;
8293;SDS011;4185;41.506;24.938;2022-10-15T14:38:54;9.73;;;7.43;;
8293;SDS011;4185;41.506;24.938;2022-10-15T14:41:53;8.27;;;5.73;;
8293;SDS011;4185;41.506;24.938;2022-10-15T14:44:20;7.60;;;4.90;;
8293;SDS011;4185;41.506;24.938;2022-10-15T14:46:48;5.93;;;5.13;;
8293;SDS011;4185;41.506;24.938;2022-10-15T14:49:21;4.00;;;3.60;;
8293;SDS011;4185;41.506;24.938;2022-10-15T14:51:54;7.67;;;6.20;;
8293;SDS011;4185;41.506;24.938;2022-10-15T14:54:25;5.03;;;4.37;;
8293;SDS011;4185;41.506;24.938;2022-10-15T14:56:57;10.80;;;6.37;;
8293;SDS011;4185;41.506;24.938;2022-10-15T14:59:27;6.03;;;5.30;;
8293;SDS011;4185;41.506;24.938;2022-10-15T15:01:57;7.30;;;5.00;;
8293;SDS011;4185;41.506;24.938;2022-10-15T15:04:34;6.00;;;4.97;;
8293;SDS011;4185;41.506;24.938;2022-10-15T15:07:13;10.00;;;7.77;;
8293;SDS011;4185;41.506;24.938;2022-10-15T15:09:42;10.83;;;6.70;;
8293;SDS011;4185;41.506;24.938;2022-10-15T15:12:14;8.47;;;6.30;;
8293;SDS011;4185;41.506;24.938;2022-10-15T15:14:46;12.27;;;7.20;;
8293;SDS011;4185;41.506;24.938;2022-10-15T15:17:14;8.37;;;6.07;;
8293;SDS011;4185;41.506;24.938;2022-10-15T15:19:44;10.17;;;6.27;;
8293;SDS011;4185;41.506;24.938;2022-10-15T15:22:12;9.53;;;7.00;;
8293;SDS011;4185;41.506;24.938;2022-10-15T15:24:43;6.73;;;5.73;;
8293;SDS011;4185;41.506;24.938;2022-10-15T15:27:23;7.90;;;6.40;;
8293;SDS011;4185;41.506;24.938;2022-10-15T15:29:51;6.80;;;5.70;;
8293;SDS011;4185;41.506;24.938;2022-10-15T15:32:19;7.93;;;5.50;;
8293;SDS011;4185;41.506;24.938;2022-10-15T15:34:48;6.83;;;5.60;;